Time;durP1;ratioP1;P1;durP2;ratioP2;P2;SDS_P1;SDS_P2;PMS_P1;PMS_P2;Temp;Humidity;BMP_temperature;BMP_pressure;BME280_temperature;BME280_humidity;BME280_pressure;Samples;Min_cycle;Max_cycle;Signal;HPM_P1;HPM_P2
2023/01/17 00:00:39;;;;;;;;;;;;;;;;;;4989954;28;20269;-58
2023/01/17 00:03:05;;;;;;;;;;;;;;;;;;4989249;28;19973;-58
2023/01/17 00:11:20;;;;;;;;;;;;;;;;;;4978690;28;19933;-58
2023/01/17 00:13:46;;;;;;;;;;;;;;;;;;4990020;28;20009;-56
2023/01/17 00:16:12;;;;;;;;;;;;;;;;;;4989674;28;20060;-55
2023/01/17 00:18:38;;;;;;;;;;;;;;;;;;4989819;28;20013;-57
2023/01/17 00:26:33;;;;;;;;;;;;;;;;;;4977496;28;19933;-55
2023/01/17 01:35:41;;;;;;;;;;;;;;;;;;4988289;28;20067;-57
2023/01/17 01:38:07;;;;;;;;;;;;;;;;;;4988249;28;20398;-58
2023/01/17 01:40:33;;;;;;;;;;;;;;;;;;4988602;28;19929;-57
2023/01/17 01:43:01;;;;;;;;;;;;;;;;;;4989264;28;19973;-58
2023/01/17 01:45:27;;;;;;;;;;;;;;;;;;4983144;28;19926;-56
2023/01/17 01:47:53;;;;;;;;;;;;;;;;;;4973066;28;20594;-57
2023/01/17 01:50:19;;;;;;;;;;;;;;;;;;4984845;28;19965;-56
2023/01/17 01:52:46;;;;;;;;;;;;;;;;;;4988677;28;19926;-57
2023/01/17 01:55:11;;;;;;;;;;;;;;;;;;4988343;28;19926;-58
2023/01/17 01:57:37;;;;;;;;;;;;;;;;;;4988688;28;19933;-57
2023/01/17 02:00:03;;;;;;;;;;;;;;;;;;4988467;28;19933;-58
2023/01/17 02:02:30;;;;;;;;;;;;;;;;;;4988940;28;20414;-57
2023/01/17 02:04:56;;;;;;;;;;;;;;;;;;4987880;28;20391;-56
2023/01/17 02:07:22;;;;;;;;;;;;;;;;;;4988173;28;19926;-55
2023/01/17 02:09:48;;;;;;;;;;;;;;;;;;4988185;28;19933;-53
2023/01/17 02:12:14;;;;;;;;;;;;;;;;;;4988167;28;19937;-57
2023/01/17 02:14:41;;;;;;;;;;;;;;;;;;4988689;28;19926;-58
2023/01/17 02:17:07;;;;;;;;;;;;;;;;;;4988346;28;19926;-58
2023/01/17 02:19:33;;;;;;;;;;;;;;;;;;4987830;28;19979;-55
2023/01/17 02:21:59;;;;;;;;;;;;;;;;;;4988656;28;19929;-58
2023/01/17 02:24:25;;;;;;;;;;;;;;;;;;4988096;28;20068;-53
2023/01/17 02:26:51;;;;;;;;;;;;;;;;;;4989982;28;20020;-58
2023/01/17 02:29:17;;;;;;;;;;;;;;;;;;4991408;28;19933;-58
2023/01/17 02:31:43;;;;;;;;;;;;;;;;;;4991987;28;19929;-58
2023/01/17 02:34:09;;;;;;;;;;;;;;;;;;4991621;28;19948;-58
2023/01/17 02:36:35;;;;;;;;;;;;;;;;;;4983175;28;20418;-57
2023/01/17 02:39:01;;;;;;;;;;;;;;;;;;4992387;28;19925;-58
2023/01/17 02:41:27;;;;;;;;;;;;;;;;;;4991245;28;19930;-57
2023/01/17 02:43:53;;;;;;;;;;;;;;;;;;4992040;28;19984;-57
2023/01/17 02:46:19;;;;;;;;;;;;;;;;;;4991261;28;19930;-57
2023/01/17 02:48:45;;;;;;;;;;;;;;;;;;4977628;28;19929;-56
2023/01/17 02:51:11;;;;;;;;;;;;;;;;;;4990388;28;20006;-53
2023/01/17 02:53:37;;;;;;;;;;;;;;;;;;4973842;28;19926;-57
2023/01/17 02:56:03;;;;;;;;;;;;;;;;;;4991221;28;19948;-56
2023/01/17 02:58:29;;;;;;;;;;;;;;;;;;4991819;28;20431;-57
2023/01/17 03:00:56;;;;;;;;;;;;;;;;;;4991384;28;19972;-57
2023/01/17 03:03:22;;;;;;;;;;;;;;;;;;4990882;28;20334;-56
2023/01/17 03:05:48;;;;;;;;;;;;;;;;;;4990539;28;19929;-57
2023/01/17 03:08:14;;;;;;;;;;;;;;;;;;4990717;28;19936;-58
2023/01/17 03:10:40;;;;;;;;;;;;;;;;;;4991205;28;19949;-58
2023/01/17 03:13:06;;;;;;;;;;;;;;;;;;4991168;28;20384;-58
2023/01/17 03:15:32;;;;;;;;;;;;;;;;;;4991584;28;20102;-57
2023/01/17 03:17:58;;;;;;;;;;;;;;;;;;4990239;28;20458;-57
2023/01/17 03:20:24;;;;;;;;;;;;;;;;;;4987071;28;19941;-58
2023/01/17 03:22:50;;;;;;;;;;;;;;;;;;4980444;28;19925;-58
2023/01/17 03:25:16;;;;;;;;;;;;;;;;;;4982298;28;19930;-58
2023/01/17 03:27:42;;;;;;;;;;;;;;;;;;4984751;28;20482;-58
2023/01/17 03:30:08;;;;;;;;;;;;;;;;;;4990390;28;20001;-54
2023/01/17 03:32:34;;;;;;;;;;;;;;;;;;4990816;28;20056;-58
2023/01/17 03:35:00;;;;;;;;;;;;;;;;;;4976945;28;20004;-56
2023/01/17 03:37:26;;;;;;;;;;;;;;;;;;4989564;28;20292;-57
2023/01/17 03:39:52;;;;;;;;;;;;;;;;;;4990410;28;19956;-57
2023/01/17 03:42:18;;;;;;;;;;;;;;;;;;4990502;28;19930;-55
2023/01/17 03:44:44;;;;;;;;;;;;;;;;;;4990674;28;20330;-56
2023/01/17 03:47:10;;;;;;;;;;;;;;;;;;4990639;28;19968;-58
2023/01/17 03:49:36;;;;;;;;;;;;;;;;;;4989893;28;19925;-57
2023/01/17 03:52:02;;;;;;;;;;;;;;;;;;4977098;28;20336;-56
2023/01/17 03:54:28;;;;;;;;;;;;;;;;;;4991142;28;19922;-58
2023/01/17 03:56:54;;;;;;;;;;;;;;;;;;4990427;28;19925;-53
2023/01/17 03:59:20;;;;;;;;;;;;;;;;;;4990460;28;20328;-57
2023/01/17 04:01:46;;;;;;;;;;;;;;;;;;4990346;28;20020;-57
2023/01/17 04:04:13;;;;;;;;;;;;;;;;;;4989457;28;19932;-58
2023/01/17 04:06:39;;;;;;;;;;;;;;;;;;4990156;28;19933;-58
2023/01/17 04:09:05;;;;;;;;;;;;;;;;;;4989147;28;19925;-55
2023/01/17 04:11:31;;;;;;;;;;;;;;;;;;4990642;28;20392;-57
2023/01/17 04:13:57;;;;;;;;;;;;;;;;;;4989997;28;19926;-56
2023/01/17 04:16:23;;;;;;;;;;;;;;;;;;4989697;28;19929;-57
2023/01/17 04:18:49;;;;;;;;;;;;;;;;;;4989636;28;20347;-57
2023/01/17 04:21:15;;;;;;;;;;;;;;;;;;4988210;28;20280;-57
2023/01/17 04:23:41;;;;;;;;;;;;;;;;;;4989756;28;19928;-57
2023/01/17 04:26:07;;;;;;;;;;;;;;;;;;4975312;28;19972;-57
2023/01/17 04:28:33;;;;;;;;;;;;;;;;;;4989492;28;19988;-56
2023/01/17 04:30:59;;;;;;;;;;;;;;;;;;4989857;28;20000;-57
2023/01/17 04:33:25;;;;;;;;;;;;;;;;;;4989247;28;19932;-57
2023/01/17 04:35:51;;;;;;;;;;;;;;;;;;4988835;28;20368;-57
2023/01/17 04:38:17;;;;;;;;;;;;;;;;;;4988873;28;19926;-58
2023/01/17 04:40:44;;;;;;;;;;;;;;;;;;4989383;28;19925;-54
2023/01/17 04:43:10;;;;;;;;;;;;;;;;;;4989235;28;19977;-57
2023/01/17 04:45:37;;;;;;;;;;;;;;;;;;4989410;28;19933;-54
2023/01/17 04:48:03;;;;;;;;;;;;;;;;;;4988881;28;19932;-56
2023/01/17 04:50:29;;;;;;;;;;;;;;;;;;4988649;28;19929;-58
2023/01/17 04:52:55;;;;;;;;;;;;;;;;;;4989490;28;19932;-60
2023/01/17 04:55:21;;;;;;;;;;;;;;;;;;4989106;28;19926;-57
2023/01/17 04:57:47;;;;;;;;;;;;;;;;;;4989238;28;19933;-56
2023/01/17 05:00:13;;;;;;;;;;;;;;;;;;4988959;28;20005;-54
2023/01/17 05:02:39;;;;;;;;;;;;;;;;;;4989147;28;20334;-57
2023/01/17 05:05:06;;;;;;;;;;;;;;;;;;4988064;28;19932;-58
2023/01/17 05:07:32;;;;;;;;;;;;;;;;;;4989185;28;19989;-54
2023/01/17 05:09:59;;;;;;;;;;;;;;;;;;4989267;28;19933;-57
2023/01/17 05:12:25;;;;;;;;;;;;;;;;;;4988679;28;19932;-57
2023/01/17 05:14:51;;;;;;;;;;;;;;;;;;4988847;28;19926;-57
2023/01/17 05:17:17;;;;;;;;;;;;;;;;;;4988984;28;20375;-57
2023/01/17 05:19:43;;;;;;;;;;;;;;;;;;4988294;28;19926;-57
2023/01/17 05:22:13;;;;;;;;;;;;;;;;;;4988298;28;20004;-57
2023/01/17 05:24:39;;;;;;;;;;;;;;;;;;4983687;28;19926;-56
2023/01/17 05:27:06;;;;;;;;;;;;;;;;;;4979503;28;19926;-57
2023/01/17 05:29:32;;;;;;;;;;;;;;;;;;4989119;28;19925;-57
2023/01/17 05:31:58;;;;;;;;;;;;;;;;;;4988457;28;19932;-51
2023/01/17 05:34:24;;;;;;;;;;;;;;;;;;4982275;28;19929;-59
2023/01/17 05:36:50;;;;;;;;;;;;;;;;;;4985684;28;19933;-56
2023/01/17 05:39:16;;;;;;;;;;;;;;;;;;4980787;28;20479;-58
2023/01/17 05:41:42;;;;;;;;;;;;;;;;;;4983758;28;20017;-58
2023/01/17 05:44:08;;;;;;;;;;;;;;;;;;4986588;28;20398;-58
2023/01/17 05:46:34;;;;;;;;;;;;;;;;;;4984010;28;19926;-59
2023/01/17 05:49:00;;;;;;;;;;;;;;;;;;4987228;28;19925;-59
2023/01/17 05:51:26;;;;;;;;;;;;;;;;;;4985032;28;19948;-59
2023/01/17 05:53:52;;;;;;;;;;;;;;;;;;4963609;28;20550;-59
2023/01/17 05:56:18;;;;;;;;;;;;;;;;;;4970314;28;19937;-59
2023/01/17 05:58:44;;;;;;;;;;;;;;;;;;4975379;28;19926;-54
2023/01/17 06:01:10;;;;;;;;;;;;;;;;;;4970344;28;19933;-59
2023/01/17 06:03:36;;;;;;;;;;;;;;;;;;4981159;28;19926;-56
2023/01/17 06:06:02;;;;;;;;;;;;;;;;;;4972437;28;19948;-59
2023/01/17 06:08:28;;;;;;;;;;;;;;;;;;4972515;28;20388;-55
2023/01/17 06:10:54;;;;;;;;;;;;;;;;;;4972031;28;19926;-56
2023/01/17 06:13:20;;;;;;;;;;;;;;;;;;4973085;28;19958;-59
2023/01/17 06:15:46;;;;;;;;;;;;;;;;;;4982207;28;19933;-58
2023/01/17 06:18:12;;;;;;;;;;;;;;;;;;4983189;28;19980;-58
2023/01/17 06:20:38;;;;;;;;;;;;;;;;;;4972208;28;20368;-55
2023/01/17 06:23:04;;;;;;;;;;;;;;;;;;4976183;28;20360;-59
2023/01/17 06:25:31;;;;;;;;;;;;;;;;;;4972937;28;20377;-55
2023/01/17 06:27:57;;;;;;;;;;;;;;;;;;4979572;28;20323;-60
2023/01/17 06:30:23;;;;;;;;;;;;;;;;;;4979199;28;19937;-57
2023/01/17 06:32:49;;;;;;;;;;;;;;;;;;4976663;28;19927;-56
2023/01/17 06:35:15;;;;;;;;;;;;;;;;;;4984817;28;20005;-60
2023/01/17 06:37:41;;;;;;;;;;;;;;;;;;4987163;28;20352;-58
2023/01/17 06:40:07;;;;;;;;;;;;;;;;;;4986002;28;19938;-59
2023/01/17 06:42:33;;;;;;;;;;;;;;;;;;4987466;28;19932;-58
2023/01/17 06:44:59;;;;;;;;;;;;;;;;;;4981845;28;20377;-59
2023/01/17 06:47:25;;;;;;;;;;;;;;;;;;4975946;28;19926;-59
2023/01/17 06:49:51;;;;;;;;;;;;;;;;;;4974665;28;19929;-59
2023/01/17 06:52:17;;;;;;;;;;;;;;;;;;4975110;28;20342;-59
2023/01/17 06:54:43;;;;;;;;;;;;;;;;;;4986964;28;20012;-59
2023/01/17 06:57:09;;;;;;;;;;;;;;;;;;4986181;28;19926;-50
2023/01/17 06:59:35;;;;;;;;;;;;;;;;;;4974856;28;19930;-56
2023/01/17 07:02:01;;;;;;;;;;;;;;;;;;4980829;28;19934;-59
2023/01/17 07:04:27;;;;;;;;;;;;;;;;;;4981268;28;19973;-57
2023/01/17 07:06:53;;;;;;;;;;;;;;;;;;4972573;28;19965;-59
2023/01/17 07:09:19;;;;;;;;;;;;;;;;;;4970792;28;19926;-60
2023/01/17 07:11:45;;;;;;;;;;;;;;;;;;4970258;28;19930;-59
2023/01/17 07:14:11;;;;;;;;;;;;;;;;;;4970295;28;19930;-59
2023/01/17 07:16:37;;;;;;;;;;;;;;;;;;4971377;28;19932;-59
2023/01/17 07:19:03;;;;;;;;;;;;;;;;;;4978396;28;19926;-53
2023/01/17 07:21:29;;;;;;;;;;;;;;;;;;4971674;28;19926;-59
2023/01/17 07:23:55;;;;;;;;;;;;;;;;;;4971353;28;19978;-55
2023/01/17 07:26:21;;;;;;;;;;;;;;;;;;4975966;28;20288;-59
2023/01/17 07:28:47;;;;;;;;;;;;;;;;;;4990865;28;19933;-55
2023/01/17 07:31:13;;;;;;;;;;;;;;;;;;4990339;28;19925;-59
2023/01/17 07:33:39;;;;;;;;;;;;;;;;;;4990607;28;19933;-58
2023/01/17 07:36:05;;;;;;;;;;;;;;;;;;4990976;28;20288;-59
2023/01/17 07:38:31;;;;;;;;;;;;;;;;;;4991275;28;20384;-59
2023/01/17 07:40:57;;;;;;;;;;;;;;;;;;4991029;28;19926;-58
2023/01/17 07:43:23;;;;;;;;;;;;;;;;;;4990702;28;19929;-56
2023/01/17 07:45:49;;;;;;;;;;;;;;;;;;4990870;28;20387;-58
2023/01/17 07:48:15;;;;;;;;;;;;;;;;;;4990407;28;19932;-57
2023/01/17 07:50:41;;;;;;;;;;;;;;;;;;4989684;28;19925;-55
2023/01/17 07:53:07;;;;;;;;;;;;;;;;;;4990182;28;19926;-58
2023/01/17 07:55:33;;;;;;;;;;;;;;;;;;4990487;28;19926;-56
2023/01/17 07:57:59;;;;;;;;;;;;;;;;;;4990903;28;20292;-59
2023/01/17 08:00:26;;;;;;;;;;;;;;;;;;4990402;28;20378;-58
2023/01/17 08:02:52;;;;;;;;;;;;;;;;;;4990514;28;20017;-59
2023/01/17 08:05:18;;;;;;;;;;;;;;;;;;4989431;28;19981;-59
2023/01/17 08:07:44;;;;;;;;;;;;;;;;;;4990411;28;19926;-57
2023/01/17 08:10:11;;;;;;;;;;;;;;;;;;4989637;28;20620;-53
2023/01/17 08:12:37;;;;;;;;;;;;;;;;;;4990258;28;19926;-59
2023/01/17 08:15:03;;;;;;;;;;;;;;;;;;4989702;28;20345;-58
2023/01/17 08:17:29;;;;;;;;;;;;;;;;;;4990340;28;19925;-58
2023/01/17 08:19:55;;;;;;;;;;;;;;;;;;4971476;28;19930;-58
2023/01/17 08:22:21;;;;;;;;;;;;;;;;;;4989339;28;19925;-59
2023/01/17 08:24:48;;;;;;;;;;;;;;;;;;4965688;28;20369;-59
2023/01/17 08:27:14;;;;;;;;;;;;;;;;;;4981386;28;19926;-58
2023/01/17 08:29:45;;;;;;;;;;;;;;;;;;4989748;28;20060;-60
2023/01/17 08:32:11;;;;;;;;;;;;;;;;;;4989948;28;20068;-59
2023/01/17 08:34:37;;;;;;;;;;;;;;;;;;4988831;28;20455;-59
2023/01/17 08:37:03;;;;;;;;;;;;;;;;;;4989736;28;20032;-56
2023/01/17 08:39:29;;;;;;;;;;;;;;;;;;4990008;28;19925;-59
2023/01/17 08:41:56;;;;;;;;;;;;;;;;;;4989614;28;19952;-58
2023/01/17 08:44:22;;;;;;;;;;;;;;;;;;4971842;28;19932;-59
2023/01/17 08:46:48;;;;;;;;;;;;;;;;;;4989730;28;19977;-58
2023/01/17 08:49:14;;;;;;;;;;;;;;;;;;4988692;28;19960;-58
2023/01/17 08:51:40;;;;;;;;;;;;;;;;;;4989320;28;19979;-59
2023/01/17 08:54:06;;;;;;;;;;;;;;;;;;4989099;28;19960;-59
2023/01/17 08:56:32;;;;;;;;;;;;;;;;;;4989588;28;19926;-59
2023/01/17 08:58:58;;;;;;;;;;;;;;;;;;4989859;28;20000;-59
2023/01/17 09:01:24;;;;;;;;;;;;;;;;;;4988813;28;20435;-58
2023/01/17 09:03:52;;;;;;;;;;;;;;;;;;4988206;28;21368;-59
2023/01/17 09:06:18;;;;;;;;;;;;;;;;;;4988999;28;19961;-58
2023/01/17 09:08:48;;;;;;;;;;;;;;;;;;4989324;28;20008;-60
2023/01/17 09:11:14;;;;;;;;;;;;;;;;;;4988821;28;19925;-59
2023/01/17 09:13:40;;;;;;;;;;;;;;;;;;4989186;28;19925;-58
2023/01/17 09:16:06;;;;;;;;;;;;;;;;;;4989158;28;19926;-59
2023/01/17 09:18:33;;;;;;;;;;;;;;;;;;4988682;28;19940;-59
2023/01/17 09:20:59;;;;;;;;;;;;;;;;;;4988957;28;19933;-51
2023/01/17 09:23:25;;;;;;;;;;;;;;;;;;4989249;28;19926;-59
2023/01/17 09:25:51;;;;;;;;;;;;;;;;;;4974784;28;19973;-57
2023/01/17 09:28:17;;;;;;;;;;;;;;;;;;4989030;28;20024;-59
2023/01/17 09:30:43;;;;;;;;;;;;;;;;;;4989057;28;19922;-59
2023/01/17 09:33:09;;;;;;;;;;;;;;;;;;4988867;28;19979;-58
2023/01/17 09:35:35;;;;;;;;;;;;;;;;;;4987628;28;20122;-59
2023/01/17 09:38:01;;;;;;;;;;;;;;;;;;4988993;28;19926;-54
2023/01/17 09:40:27;;;;;;;;;;;;;;;;;;4988032;28;20319;-59
2023/01/17 09:42:53;;;;;;;;;;;;;;;;;;4988872;28;19930;-58
2023/01/17 09:45:19;;;;;;;;;;;;;;;;;;4988800;28;19976;-58
2023/01/17 09:47:45;;;;;;;;;;;;;;;;;;4988898;28;19926;-52
2023/01/17 09:50:11;;;;;;;;;;;;;;;;;;4987645;28;20332;-59
2023/01/17 09:52:37;;;;;;;;;;;;;;;;;;4988736;28;19988;-57
2023/01/17 09:55:03;;;;;;;;;;;;;;;;;;4988619;28;20380;-56
2023/01/17 09:57:29;;;;;;;;;;;;;;;;;;4989007;28;19980;-51
2023/01/17 09:59:55;;;;;;;;;;;;;;;;;;4988174;28;19930;-59
2023/01/17 10:02:21;;;;;;;;;;;;;;;;;;4988576;28;19926;-58
2023/01/17 10:04:50;;;;;;;;;;;;;;;;;;4988230;28;19926;-60
2023/01/17 10:07:16;;;;;;;;;;;;;;;;;;4988224;28;19925;-59
2023/01/17 10:09:42;;;;;;;;;;;;;;;;;;4988652;28;20337;-59
2023/01/17 10:12:08;;;;;;;;;;;;;;;;;;4988509;28;20277;-59
2023/01/17 10:14:34;;;;;;;;;;;;;;;;;;4997794;28;20340;-58
2023/01/17 10:17:00;;;;;;;;;;;;;;;;;;4988527;28;20387;-57
2023/01/17 10:19:26;;;;;;;;;;;;;;;;;;4987532;28;19965;-57
2023/01/17 10:21:52;;;;;;;;;;;;;;;;;;4988387;28;19926;-59
2023/01/17 10:24:18;;;;;;;;;;;;;;;;;;4986275;28;19925;-54
2023/01/17 10:26:44;;;;;;;;;;;;;;;;;;4976550;28;20683;-59
2023/01/17 10:29:10;;;;;;;;;;;;;;;;;;4988270;28;20395;-58
2023/01/17 10:31:36;;;;;;;;;;;;;;;;;;4988550;28;19929;-59
2023/01/17 10:34:02;;;;;;;;;;;;;;;;;;4988136;28;19926;-59
2023/01/17 10:36:28;;;;;;;;;;;;;;;;;;4988028;28;19926;-58
2023/01/17 10:38:54;;;;;;;;;;;;;;;;;;4988502;28;19929;-58
2023/01/17 10:41:20;;;;;;;;;;;;;;;;;;4987970;28;20476;-59
2023/01/17 10:43:46;;;;;;;;;;;;;;;;;;4988490;28;19933;-60
2023/01/17 10:46:12;;;;;;;;;;;;;;;;;;4988052;28;19933;-59
2023/01/17 10:48:38;;;;;;;;;;;;;;;;;;4990725;28;19926;-59
2023/01/17 10:51:04;;;;;;;;;;;;;;;;;;4991346;28;19925;-57
2023/01/17 10:53:30;;;;;;;;;;;;;;;;;;4992279;28;20497;-59
2023/01/17 10:55:56;;;;;;;;;;;;;;;;;;4991487;28;19933;-58
2023/01/17 10:58:22;;;;;;;;;;;;;;;;;;4991054;28;20479;-59
2023/01/17 11:00:48;;;;;;;;;;;;;;;;;;4991515;28;20029;-59
2023/01/17 11:03:14;;;;;;;;;;;;;;;;;;4990510;28;20284;-59
2023/01/17 11:05:41;;;;;;;;;;;;;;;;;;4991508;28;20384;-59
2023/01/17 11:08:07;;;;;;;;;;;;;;;;;;4991275;28;20277;-57
2023/01/17 11:10:35;;;;;;;;;;;;;;;;;;4991306;28;19942;-56
2023/01/17 11:13:01;;;;;;;;;;;;;;;;;;4991913;28;19980;-59
2023/01/17 11:15:27;;;;;;;;;;;;;;;;;;4990494;28;20012;-59
2023/01/17 11:17:53;;;;;;;;;;;;;;;;;;4991606;28;19930;-53
2023/01/17 11:20:19;;;;;;;;;;;;;;;;;;4989940;28;20294;-58
2023/01/17 11:22:46;;;;;;;;;;;;;;;;;;4991246;28;19926;-57
2023/01/17 11:25:12;;;;;;;;;;;;;;;;;;4981501;28;19926;-58
2023/01/17 11:27:38;;;;;;;;;;;;;;;;;;4986634;28;20072;-57
2023/01/17 11:30:04;;;;;;;;;;;;;;;;;;4990907;28;19926;-53
2023/01/17 11:32:30;;;;;;;;;;;;;;;;;;4991342;28;19926;-59
2023/01/17 11:34:57;;;;;;;;;;;;;;;;;;4990065;28;20005;-57
2023/01/17 11:37:25;;;;;;;;;;;;;;;;;;4990952;28;19930;-55
2023/01/17 11:39:51;;;;;;;;;;;;;;;;;;4990770;28;19926;-59
2023/01/17 11:42:17;;;;;;;;;;;;;;;;;;4990628;28;20391;-59
2023/01/17 11:44:43;;;;;;;;;;;;;;;;;;4991127;28;19926;-59
2023/01/17 11:47:09;;;;;;;;;;;;;;;;;;4990759;28;19926;-59
2023/01/17 11:49:35;;;;;;;;;;;;;;;;;;4989749;28;20380;-55
2023/01/17 11:52:02;;;;;;;;;;;;;;;;;;4990892;28;20360;-59
2023/01/17 11:54:28;;;;;;;;;;;;;;;;;;4990834;28;19942;-59
2023/01/17 11:56:54;;;;;;;;;;;;;;;;;;4990331;28;19925;-58
2023/01/17 11:59:20;;;;;;;;;;;;;;;;;;4989457;28;19980;-59
2023/01/17 12:01:46;;;;;;;;;;;;;;;;;;4989915;28;19972;-60
2023/01/17 12:04:12;;;;;;;;;;;;;;;;;;4989269;28;19930;-59
2023/01/17 12:06:38;;;;;;;;;;;;;;;;;;4990334;28;19926;-58
2023/01/17 12:09:04;;;;;;;;;;;;;;;;;;4990170;28;19926;-58
2023/01/17 12:11:30;;;;;;;;;;;;;;;;;;4990075;28;19925;-56
2023/01/17 12:13:59;;;;;;;;;;;;;;;;;;4989976;28;19926;-53
2023/01/17 12:16:28;;;;;;;;;;;;;;;;;;4989683;28;19933;-57
2023/01/17 12:18:54;;;;;;;;;;;;;;;;;;4979335;28;19980;-54
2023/01/17 12:21:20;;;;;;;;;;;;;;;;;;4988694;28;19929;-58
2023/01/17 12:23:46;;;;;;;;;;;;;;;;;;4961742;28;19926;-57
2023/01/17 12:26:18;;;;;;;;;;;;;;;;;;4985153;28;19926;-57
2023/01/17 12:28:45;;;;;;;;;;;;;;;;;;4988690;28;19930;-52
2023/01/17 12:31:11;;;;;;;;;;;;;;;;;;4972876;28;20326;-57
2023/01/17 12:33:37;;;;;;;;;;;;;;;;;;4969668;28;19926;-57
2023/01/17 12:36:03;;;;;;;;;;;;;;;;;;4970494;28;19937;-56
2023/01/17 12:38:29;;;;;;;;;;;;;;;;;;4970535;28;19926;-57
2023/01/17 12:40:55;;;;;;;;;;;;;;;;;;4969947;28;19952;-54
2023/01/17 12:43:21;;;;;;;;;;;;;;;;;;4970257;28;19926;-58
2023/01/17 12:45:47;;;;;;;;;;;;;;;;;;4970017;28;19926;-56
2023/01/17 12:48:13;;;;;;;;;;;;;;;;;;4968710;28;19990;-58
2023/01/17 12:50:39;;;;;;;;;;;;;;;;;;4976289;28;20012;-56
2023/01/17 12:53:05;;;;;;;;;;;;;;;;;;4974262;28;20311;-58
2023/01/17 12:55:31;;;;;;;;;;;;;;;;;;4970238;28;19926;-57
2023/01/17 12:57:57;;;;;;;;;;;;;;;;;;4952598;28;20335;-58
2023/01/17 13:00:24;;;;;;;;;;;;;;;;;;4969337;28;19930;-57
2023/01/17 13:02:50;;;;;;;;;;;;;;;;;;4969282;28;20388;-57
2023/01/17 13:05:16;;;;;;;;;;;;;;;;;;4969590;28;19930;-58
2023/01/17 13:07:42;;;;;;;;;;;;;;;;;;4969513;28;19933;-56
2023/01/17 13:10:08;;;;;;;;;;;;;;;;;;4969178;28;19933;-59
2023/01/17 13:12:34;;;;;;;;;;;;;;;;;;4969779;28;19926;-58
2023/01/17 13:15:01;;;;;;;;;;;;;;;;;;4953096;28;19934;-57
2023/01/17 13:17:27;;;;;;;;;;;;;;;;;;4969279;28;19926;-58
2023/01/17 13:19:53;;;;;;;;;;;;;;;;;;4968968;28;19930;-59
2023/01/17 13:22:21;;;;;;;;;;;;;;;;;;4970826;28;19934;-55
2023/01/17 13:24:47;;;;;;;;;;;;;;;;;;4977862;28;19933;-58
2023/01/17 13:27:13;;;;;;;;;;;;;;;;;;4976035;28;19930;-58
2023/01/17 13:29:40;;;;;;;;;;;;;;;;;;4979578;28;19926;-58
2023/01/17 13:32:06;;;;;;;;;;;;;;;;;;4986494;28;19985;-58
2023/01/17 13:34:32;;;;;;;;;;;;;;;;;;4984894;28;19926;-58
2023/01/17 13:36:58;;;;;;;;;;;;;;;;;;4987792;28;19933;-55
2023/01/17 13:39:24;;;;;;;;;;;;;;;;;;4986956;28;20633;-59
2023/01/17 13:41:50;;;;;;;;;;;;;;;;;;4974406;28;19930;-54
2023/01/17 13:44:23;;;;;;;;;;;;;;;;;;4974216;28;19981;-58
2023/01/17 13:46:49;;;;;;;;;;;;;;;;;;4980826;28;19929;-59
2023/01/17 13:49:15;;;;;;;;;;;;;;;;;;4968613;28;19926;-55
2023/01/17 13:51:41;;;;;;;;;;;;;;;;;;4977781;28;19926;-58
2023/01/17 13:54:07;;;;;;;;;;;;;;;;;;4968988;28;20248;-58
2023/01/17 13:56:33;;;;;;;;;;;;;;;;;;4968821;28;19969;-56
2023/01/17 13:59:03;;;;;;;;;;;;;;;;;;4970426;28;19945;-59
2023/01/17 14:01:29;;;;;;;;;;;;;;;;;;4969536;28;19930;-58
2023/01/17 14:03:55;;;;;;;;;;;;;;;;;;4968642;28;19993;-59
2023/01/17 14:06:21;;;;;;;;;;;;;;;;;;4970793;28;20385;-58
2023/01/17 14:08:47;;;;;;;;;;;;;;;;;;4971695;28;19926;-59
2023/01/17 14:11:15;;;;;;;;;;;;;;;;;;4969704;28;19933;-58
2023/01/17 14:13:41;;;;;;;;;;;;;;;;;;4983436;28;19933;-58
2023/01/17 14:16:07;;;;;;;;;;;;;;;;;;4975027;28;20437;-61
2023/01/17 14:18:33;;;;;;;;;;;;;;;;;;4968772;28;19934;-61
2023/01/17 14:20:59;;;;;;;;;;;;;;;;;;4969467;28;20361;-60
2023/01/17 14:23:25;;;;;;;;;;;;;;;;;;4971681;28;19933;-60
2023/01/17 14:25:51;;;;;;;;;;;;;;;;;;4976625;28;20009;-55
2023/01/17 14:28:17;;;;;;;;;;;;;;;;;;4983156;28;20808;-61
2023/01/17 14:30:43;;;;;;;;;;;;;;;;;;4979121;28;20024;-58
2023/01/17 14:33:09;;;;;;;;;;;;;;;;;;4975337;28;19926;-61
2023/01/17 14:35:35;;;;;;;;;;;;;;;;;;4980803;28;20000;-61
2023/01/17 14:38:02;;;;;;;;;;;;;;;;;;4972828;28;19980;-61
2023/01/17 14:40:29;;;;;;;;;;;;;;;;;;4973067;28;19926;-60
2023/01/17 14:42:55;;;;;;;;;;;;;;;;;;4980351;28;20205;-62
2023/01/17 14:45:21;;;;;;;;;;;;;;;;;;4972422;28;19981;-59
2023/01/17 14:47:50;;;;;;;;;;;;;;;;;;4972049;28;20324;-61
2023/01/17 14:50:16;;;;;;;;;;;;;;;;;;4971828;28;19938;-55
2023/01/17 14:52:43;;;;;;;;;;;;;;;;;;4972371;28;19922;-61
2023/01/17 14:55:09;;;;;;;;;;;;;;;;;;4981837;28;19927;-61
2023/01/17 14:57:35;;;;;;;;;;;;;;;;;;4976183;28;19932;-61
2023/01/17 15:00:02;;;;;;;;;;;;;;;;;;4955111;28;19977;-61
2023/01/17 15:02:28;;;;;;;;;;;;;;;;;;4972489;28;19933;-62
2023/01/17 15:04:54;;;;;;;;;;;;;;;;;;4972526;28;19980;-61
2023/01/17 15:07:20;;;;;;;;;;;;;;;;;;4971761;28;19934;-62
2023/01/17 15:09:46;;;;;;;;;;;;;;;;;;4972310;28;19926;-57
2023/01/17 15:12:13;;;;;;;;;;;;;;;;;;4971772;28;19927;-62
2023/01/17 15:14:39;;;;;;;;;;;;;;;;;;4974636;28;19933;-62
2023/01/17 15:17:05;;;;;;;;;;;;;;;;;;4975394;28;19938;-55
2023/01/17 15:19:31;;;;;;;;;;;;;;;;;;4973987;28;19933;-62
2023/01/17 15:21:58;;;;;;;;;;;;;;;;;;4971619;28;19930;-56
2023/01/17 15:24:24;;;;;;;;;;;;;;;;;;4977957;28;19934;-62
2023/01/17 15:26:50;;;;;;;;;;;;;;;;;;4976636;28;19937;-61
2023/01/17 15:29:17;;;;;;;;;;;;;;;;;;4985818;28;19930;-61
2023/01/17 15:31:43;;;;;;;;;;;;;;;;;;4990074;28;19932;-61
2023/01/17 15:34:09;;;;;;;;;;;;;;;;;;4979625;28;19926;-61
2023/01/17 15:36:35;;;;;;;;;;;;;;;;;;4989402;28;20016;-52
2023/01/17 15:39:01;;;;;;;;;;;;;;;;;;4989047;28;20020;-61
2023/01/17 15:41:27;;;;;;;;;;;;;;;;;;4989748;28;20324;-58
2023/01/17 15:43:56;;;;;;;;;;;;;;;;;;4985302;28;19934;-60
2023/01/17 15:46:22;;;;;;;;;;;;;;;;;;4989525;28;19932;-59
2023/01/17 15:48:49;;;;;;;;;;;;;;;;;;4982023;28;19925;-61
2023/01/17 15:51:15;;;;;;;;;;;;;;;;;;4989218;28;20289;-60
2023/01/17 15:53:41;;;;;;;;;;;;;;;;;;4978814;28;20324;-58
2023/01/17 15:56:07;;;;;;;;;;;;;;;;;;4983563;28;20372;-61
2023/01/17 15:58:33;;;;;;;;;;;;;;;;;;4989201;28;19926;-56
2023/01/17 16:00:59;;;;;;;;;;;;;;;;;;4989391;28;19922;-62
2023/01/17 16:03:25;;;;;;;;;;;;;;;;;;4980383;28;19925;-61
2023/01/17 16:05:51;;;;;;;;;;;;;;;;;;4989456;28;19980;-60
2023/01/17 16:08:17;;;;;;;;;;;;;;;;;;4988997;28;19926;-61
2023/01/17 16:10:43;;;;;;;;;;;;;;;;;;4988722;28;20275;-61
2023/01/17 16:13:09;;;;;;;;;;;;;;;;;;4985940;28;20376;-62
2023/01/17 16:15:35;;;;;;;;;;;;;;;;;;4987890;28;19926;-62
2023/01/17 16:18:01;;;;;;;;;;;;;;;;;;4988894;28;19929;-61
2023/01/17 16:20:28;;;;;;;;;;;;;;;;;;4988830;28;19992;-57
2023/01/17 16:22:54;;;;;;;;;;;;;;;;;;4984267;28;20013;-61
2023/01/17 16:25:20;;;;;;;;;;;;;;;;;;4978360;28;19951;-59
2023/01/17 16:27:46;;;;;;;;;;;;;;;;;;4985827;28;19940;-57
2023/01/17 16:30:16;;;;;;;;;;;;;;;;;;4988690;28;19922;-62
2023/01/17 16:32:42;;;;;;;;;;;;;;;;;;4977202;28;19932;-60
2023/01/17 16:35:08;;;;;;;;;;;;;;;;;;4988933;28;19926;-62
2023/01/17 16:37:34;;;;;;;;;;;;;;;;;;4980824;28;19940;-63
2023/01/17 16:40:00;;;;;;;;;;;;;;;;;;4985860;28;19926;-62
2023/01/17 16:42:26;;;;;;;;;;;;;;;;;;4977791;28;20280;-62
2023/01/17 16:44:52;;;;;;;;;;;;;;;;;;4970282;28;19926;-61
2023/01/17 16:47:18;;;;;;;;;;;;;;;;;;4973593;28;19926;-61
2023/01/17 16:49:44;;;;;;;;;;;;;;;;;;4973739;28;19969;-60
2023/01/17 16:52:10;;;;;;;;;;;;;;;;;;4970637;28;20009;-62
2023/01/17 16:54:36;;;;;;;;;;;;;;;;;;4973745;28;19973;-56
2023/01/17 16:57:02;;;;;;;;;;;;;;;;;;4979980;28;19933;-59
2023/01/17 16:59:28;;;;;;;;;;;;;;;;;;4970489;28;20372;-63
2023/01/17 17:01:54;;;;;;;;;;;;;;;;;;4970194;28;19952;-59
2023/01/17 17:04:20;;;;;;;;;;;;;;;;;;4969706;28;19926;-62
2023/01/17 17:06:46;;;;;;;;;;;;;;;;;;4981702;28;19929;-61
2023/01/17 17:09:12;;;;;;;;;;;;;;;;;;4965618;28;20297;-61
2023/01/17 17:11:38;;;;;;;;;;;;;;;;;;4983105;28;19926;-61
2023/01/17 17:14:04;;;;;;;;;;;;;;;;;;4984201;28;19930;-61
2023/01/17 17:16:31;;;;;;;;;;;;;;;;;;4976716;28;20064;-57
2023/01/17 17:18:57;;;;;;;;;;;;;;;;;;4969425;28;19993;-61
2023/01/17 17:21:23;;;;;;;;;;;;;;;;;;4972132;28;20598;-60
2023/01/17 17:23:53;;;;;;;;;;;;;;;;;;4978362;28;20282;-55
2023/01/17 17:26:19;;;;;;;;;;;;;;;;;;4976933;28;19925;-60
2023/01/17 17:28:45;;;;;;;;;;;;;;;;;;4985391;28;19948;-60
2023/01/17 17:31:11;;;;;;;;;;;;;;;;;;4987884;28;19944;-60
2023/01/17 17:33:37;;;;;;;;;;;;;;;;;;4982275;28;19932;-60
2023/01/17 17:36:03;;;;;;;;;;;;;;;;;;4988011;28;20021;-56
2023/01/17 17:38:32;;;;;;;;;;;;;;;;;;4987932;28;19957;-60
2023/01/17 17:40:58;;;;;;;;;;;;;;;;;;4982411;28;19930;-55
2023/01/17 17:43:24;;;;;;;;;;;;;;;;;;4988820;28;20283;-60
2023/01/17 17:45:50;;;;;;;;;;;;;;;;;;4986035;28;19930;-58
2023/01/17 17:48:16;;;;;;;;;;;;;;;;;;4988509;28;20415;-60
2023/01/17 17:50:42;;;;;;;;;;;;;;;;;;4989589;28;19926;-60
2023/01/17 17:53:08;;;;;;;;;;;;;;;;;;4989207;28;19933;-60
2023/01/17 17:55:35;;;;;;;;;;;;;;;;;;4988777;28;19926;-59